Time;durP1;ratioP1;P1;durP2;ratioP2;P2;SDS_P1;SDS_P2;PMS_P1;PMS_P2;Temp;Humidity;BMP_temperature;BMP_pressure;BME280_temperature;BME280_humidity;BME280_pressure;Samples;Min_cycle;Max_cycle;Signal;HPM_P1;HPM_P2
2021/07/22 00:01:00;;;;;;;5.82;5.30;;;;;23.50;101164.00;;;;2059066;28;20207;-65
2021/07/22 00:02:00;;;;;;;6.43;5.90;;;;;23.50;101151.00;;;;2060159;28;21065;-65
2021/07/22 00:03:01;;;;;;;6.23;5.63;;;;;23.50;101156.00;;;;2059573;28;20215;-65
2021/07/22 00:04:01;;;;;;;5.87;5.37;;;;;23.50;101154.00;;;;2058678;28;20218;-65
2021/07/22 00:05:02;;;;;;;6.10;5.60;;;;;23.50;101152.00;;;;2058984;28;20246;-64
2021/07/22 00:06:02;;;;;;;6.63;6.13;;;;;23.50;101164.00;;;;2058536;28;20283;-64
2021/07/22 00:07:03;;;;;;;7.13;6.43;;;;;23.50;101151.00;;;;2059216;28;20599;-65
2021/07/22 00:08:03;;;;;;;6.50;5.93;;;;;23.50;101154.00;;;;2059755;28;20223;-65
2021/07/22 00:09:04;;;;;;;6.80;6.20;;;;;23.50;101152.00;;;;2059676;28;20215;-64
2021/07/22 00:10:04;;;;;;;6.30;5.70;;;;;23.50;101151.00;;;;2059742;28;20218;-65
2021/07/22 00:11:08;;;;;;;6.73;6.13;;;;;23.50;101154.00;;;;2058812;28;20218;-64
2021/07/22 00:12:09;;;;;;;5.82;5.20;;;;;23.50;101150.00;;;;2059028;28;20517;-65
2021/07/22 00:13:10;;;;;;;6.70;6.10;;;;;23.50;101149.00;;;;2058778;28;20293;-64
2021/07/22 00:14:11;;;;;;;6.47;5.88;;;;;23.50;101152.00;;;;2059039;28;20458;-64
2021/07/22 00:15:11;;;;;;;6.10;5.60;;;;;23.50;101151.00;;;;2063267;28;20927;-64
2021/07/22 00:16:15;;;;;;;7.07;6.47;;;;;23.50;101151.00;;;;2061330;28;20689;-65
2021/07/22 00:17:16;;;;;;;6.78;6.18;;;;;23.50;101144.00;;;;2060558;28;20203;-64
2021/07/22 00:18:16;;;;;;;6.40;5.80;;;;;23.50;101157.00;;;;2059243;28;20584;-64
2021/07/22 00:19:16;;;;;;;6.13;5.63;;;;;23.50;101150.00;;;;2058639;28;20627;-64
2021/07/22 00:20:17;;;;;;;7.23;6.63;;;;;23.50;101143.00;;;;2058560;28;20613;-65
2021/07/22 00:21:17;;;;;;;6.70;6.10;;;;;23.50;101144.00;;;;2059293;28;20641;-65
2021/07/22 00:22:18;;;;;;;7.07;6.47;;;;;23.50;101144.00;;;;2059415;28;20286;-64
2021/07/22 00:23:18;;;;;;;7.43;6.73;;;;;23.50;101152.00;;;;2059645;28;20683;-64
2021/07/22 00:24:18;;;;;;;6.67;6.10;;;;;23.50;101150.00;;;;2059857;28;20589;-64
2021/07/22 00:25:19;;;;;;;5.43;5.00;;;;;23.50;101151.00;;;;2060162;28;20231;-64
2021/07/22 00:26:19;;;;;;;6.33;5.77;;;;;23.50;101155.00;;;;2059972;28;20218;-65
2021/07/22 00:27:20;;;;;;;6.50;5.90;;;;;23.50;101153.00;;;;2059826;28;20562;-64
2021/07/22 00:28:21;;;;;;;6.13;5.63;;;;;23.50;101154.00;;;;2059277;28;20234;-64
2021/07/22 00:29:21;;;;;;;6.40;5.90;;;;;23.50;101149.00;;;;2059388;28;20265;-65
2021/07/22 00:30:21;;;;;;;6.63;6.03;;;;;23.50;101155.00;;;;2057992;28;20220;-64
2021/07/22 00:31:22;;;;;;;6.60;6.00;;;;;23.50;101150.00;;;;2049532;28;20216;-65
2021/07/22 00:32:22;;;;;;;7.20;6.60;;;;;23.50;101151.00;;;;2059645;28;20210;-65
2021/07/22 00:33:22;;;;;;;7.00;6.30;;;;;23.50;101145.00;;;;2059787;28;20777;-65
2021/07/22 00:34:23;;;;;;;6.53;5.93;;;;;23.50;101146.00;;;;2059993;28;20211;-64
2021/07/22 00:35:24;;;;;;;6.30;5.80;;;;;23.50;101150.00;;;;2060014;28;20207;-65
2021/07/22 00:36:24;;;;;;;6.23;5.67;;;;;23.50;101150.00;;;;2058616;28;20226;-64
2021/07/22 00:37:24;;;;;;;6.90;6.30;;;;;23.50;101144.00;;;;2059411;28;20438;-65
2021/07/22 00:38:25;;;;;;;6.60;6.00;;;;;23.50;101144.00;;;;2059370;28;20234;-65
2021/07/22 00:39:25;;;;;;;6.80;6.20;;;;;23.50;101142.00;;;;2059264;28;20270;-65
2021/07/22 00:40:25;;;;;;;5.70;5.20;;;;;23.50;101143.00;;;;2059096;28;20227;-65
2021/07/22 00:41:26;;;;;;;5.90;5.37;;;;;23.50;101141.00;;;;2059224;28;20226;-64
2021/07/22 00:42:26;;;;;;;6.30;5.70;;;;;23.50;101152.00;;;;2060084;28;20239;-65
2021/07/22 00:43:26;;;;;;;6.60;6.00;;;;;23.50;101146.00;;;;2060008;28;20219;-65
2021/07/22 00:44:27;;;;;;;6.30;5.80;;;;;23.50;101146.00;;;;2059670;28;20580;-64
2021/07/22 00:45:28;;;;;;;7.03;6.43;;;;;23.50;101136.00;;;;2061210;28;20229;-64
2021/07/22 00:46:28;;;;;;;6.22;5.68;;;;;23.50;101148.00;;;;2061182;28;20207;-64
2021/07/22 00:47:29;;;;;;;6.77;6.17;;;;;23.50;101137.00;;;;2062738;28;20671;-65
2021/07/22 00:48:29;;;;;;;7.03;6.33;;;;;23.50;101140.00;;;;2059850;28;20576;-64
2021/07/22 00:49:29;;;;;;;6.37;5.87;;;;;23.50;101150.00;;;;2059010;28;20626;-64
2021/07/22 00:50:30;;;;;;;6.90;6.30;;;;;23.50;101145.00;;;;2057081;28;20593;-64
2021/07/22 00:51:30;;;;;;;6.40;5.90;;;;;23.50;101135.00;;;;2049209;28;20645;-65
2021/07/22 00:52:31;;;;;;;7.00;6.40;;;;;23.50;101134.00;;;;2058225;28;20291;-65
2021/07/22 00:53:33;;;;;;;6.20;5.70;;;;;23.50;101140.00;;;;2058906;28;20275;-64
2021/07/22 00:54:33;;;;;;;6.45;5.95;;;;;23.50;101136.00;;;;2060058;28;20227;-64
2021/07/22 00:55:33;;;;;;;6.70;6.10;;;;;23.50;101142.00;;;;2060061;28;20309;-65
2021/07/22 00:56:34;;;;;;;6.80;6.20;;;;;23.50;101134.00;;;;2058995;28;20222;-64
2021/07/22 00:57:34;;;;;;;6.33;5.73;;;;;23.50;101136.00;;;;2059147;28;20218;-64
2021/07/22 00:58:34;;;;;;;6.47;5.97;;;;;23.50;101141.00;;;;2059192;28;20215;-64
2021/07/22 00:59:35;;;;;;;6.80;6.20;;;;;23.50;101129.00;;;;2059130;28;20221;-65
2021/07/22 01:00:36;;;;;;;6.30;5.77;;;;;23.50;101140.00;;;;2058388;28;20678;-64
2021/07/22 01:01:36;;;;;;;5.60;5.10;;;;;23.50;101133.00;;;;2059462;28;20302;-64
2021/07/22 01:02:37;;;;;;;6.80;6.20;;;;;23.50;101138.00;;;;2059473;28;20230;-64
2021/07/22 01:03:38;;;;;;;6.03;5.53;;;;;23.50;101129.00;;;;2059421;28;20297;-64
2021/07/22 01:04:39;;;;;;;6.80;6.20;;;;;23.50;101139.00;;;;2056297;28;20463;-64
2021/07/22 01:05:39;;;;;;;6.20;5.70;;;;;23.50;101133.00;;;;2063266;28;20713;-64
2021/07/22 01:06:39;;;;;;;6.53;5.93;;;;;23.50;101137.00;;;;2067576;28;20741;-64
2021/07/22 01:07:40;;;;;;;5.97;5.47;;;;;23.50;101134.00;;;;2067985;28;20218;-64
2021/07/22 01:08:40;;;;;;;7.40;6.70;;;;;23.50;101136.00;;;;2067819;28;20241;-65
2021/07/22 01:09:40;;;;;;;6.93;6.33;;;;;23.50;101135.00;;;;2067303;28;20242;-64
2021/07/22 01:10:41;;;;;;;6.67;6.07;;;;;23.50;101130.00;;;;2069891;28;20218;-64
2021/07/22 01:11:41;;;;;;;5.80;5.30;;;;;23.50;101130.00;;;;2068859;28;20708;-65
2021/07/22 01:12:41;;;;;;;6.43;5.93;;;;;23.50;101135.00;;;;2067730;28;20743;-65
2021/07/22 01:13:42;;;;;;;6.70;6.10;;;;;23.50;101137.00;;;;2067003;28;20207;-65
2021/07/22 01:14:43;;;;;;;6.40;5.80;;;;;23.50;101135.00;;;;2067696;28;20222;-64
2021/07/22 01:15:43;;;;;;;6.07;5.57;;;;;23.50;101133.00;;;;2066423;28;20780;-65
2021/07/22 01:16:44;;;;;;;7.13;6.53;;;;;23.50;101129.00;;;;2059254;28;20216;-65
2021/07/22 01:17:48;;;;;;;6.40;5.80;;;;;23.50;101131.00;;;;2050509;28;20253;-64
2021/07/22 01:18:48;;;;;;;6.22;5.65;;;;;23.50;101127.00;;;;2058629;28;20573;-65
2021/07/22 01:19:48;;;;;;;6.43;5.83;;;;;23.50;101127.00;;;;2067022;28;20222;-65
2021/07/22 01:20:49;;;;;;;6.87;6.27;;;;;23.50;101117.00;;;;2065959;28;20589;-64
2021/07/22 01:21:49;;;;;;;6.67;6.07;;;;;23.50;101132.00;;;;2067115;28;20310;-65
2021/07/22 01:22:50;;;;;;;6.80;6.20;;;;;23.40;101127.00;;;;2067503;28;20234;-65
2021/07/22 01:23:51;;;;;;;6.22;5.72;;;;;23.50;101126.00;;;;2067805;28;20247;-64
2021/07/22 01:24:51;;;;;;;6.27;5.67;;;;;23.50;101131.00;;;;2067586;28;20226;-64
2021/07/22 01:25:51;;;;;;;6.10;5.60;;;;;23.50;101132.00;;;;2067956;28;20261;-64
2021/07/22 01:26:52;;;;;;;5.80;5.30;;;;;23.40;101125.00;;;;2067310;28;20222;-64
2021/07/22 01:27:52;;;;;;;6.40;5.80;;;;;23.50;101128.00;;;;2066940;28;20222;-64
2021/07/22 01:28:52;;;;;;;7.23;6.53;;;;;23.50;101129.00;;;;2065671;28;20224;-64
2021/07/22 01:29:53;;;;;;;6.23;5.73;;;;;23.40;101133.00;;;;2066742;28;20292;-64
2021/07/22 01:30:53;;;;;;;6.97;6.37;;;;;23.50;101127.00;;;;2066744;28;20585;-64
2021/07/22 01:31:53;;;;;;;6.43;5.90;;;;;23.50;101126.00;;;;2067655;28;20740;-64
2021/07/22 01:32:54;;;;;;;6.00;5.50;;;;;23.50;101132.00;;;;2067261;28;20672;-65
2021/07/22 01:33:54;;;;;;;6.43;5.93;;;;;23.50;101131.00;;;;2067667;28;20599;-65
2021/07/22 01:34:54;;;;;;;6.70;6.10;;;;;23.50;101121.00;;;;2067635;28;20693;-64
2021/07/22 01:35:55;;;;;;;6.73;6.13;;;;;23.50;101132.00;;;;2066894;28;20756;-64
2021/07/22 01:36:55;;;;;;;6.97;6.37;;;;;23.50;101126.00;;;;2067882;28;20665;-64
2021/07/22 01:37:55;;;;;;;6.80;6.20;;;;;23.50;101123.00;;;;2069931;28;20983;-65
2021/07/22 01:38:59;;;;;;;6.30;5.80;;;;;23.50;101121.00;;;;2069110;28;20215;-64
2021/07/22 01:40:00;;;;;;;6.72;6.13;;;;;23.50;101123.00;;;;2066738;28;20561;-64
2021/07/22 01:41:04;;;;;;;6.50;5.90;;;;;23.50;101113.00;;;;2066206;28;20220;-64
2021/07/22 01:42:04;;;;;;;6.65;6.05;;;;;23.50;101125.00;;;;2066825;28;20338;-64
2021/07/22 01:43:05;;;;;;;6.87;6.27;;;;;23.50;101109.00;;;;2067140;28;20238;-64
2021/07/22 01:44:06;;;;;;;6.23;5.70;;;;;23.40;101114.00;;;;2067531;28;20214;-64
2021/07/22 01:45:07;;;;;;;6.90;6.30;;;;;23.40;101115.00;;;;2067167;28;20300;-64
2021/07/22 01:46:07;;;;;;;6.03;5.53;;;;;23.40;101117.00;;;;2070556;28;20218;-64
2021/07/22 01:47:07;;;;;;;6.43;5.83;;;;;23.40;101116.00;;;;2069304;28;20214;-65
2021/07/22 01:48:08;;;;;;;6.50;6.00;;;;;23.50;101113.00;;;;2068319;28;20230;-64
2021/07/22 01:49:08;;;;;;;6.73;6.13;;;;;23.40;101119.00;;;;2067000;28;20215;-65
2021/07/22 01:50:09;;;;;;;6.37;5.77;;;;;23.40;101117.00;;;;2067071;28;20237;-65
2021/07/22 01:51:09;;;;;;;6.33;5.80;;;;;23.40;101116.00;;;;2066445;28;20566;-65
2021/07/22 01:52:11;;;;;;;6.47;5.87;;;;;23.40;101116.00;;;;2066849;28;20981;-64
2021/07/22 01:53:11;;;;;;;6.95;6.25;;;;;23.50;101117.00;;;;2066673;28;20225;-64
2021/07/22 01:54:11;;;;;;;6.67;6.07;;;;;23.50;101114.00;;;;2066882;28;20219;-64
2021/07/22 01:55:12;;;;;;;6.37;5.87;;;;;23.50;101113.00;;;;2066717;28;20261;-64
2021/07/22 01:56:12;;;;;;;7.13;6.50;;;;;23.50;101112.00;;;;2067576;28;20218;-64
2021/07/22 01:57:12;;;;;;;6.83;6.23;;;;;23.40;101111.00;;;;2067389;28;20215;-65
2021/07/22 01:58:12;;;;;;;6.40;5.90;;;;;23.50;101113.00;;;;2067588;28;20265;-64
2021/07/22 01:59:13;;;;;;;6.47;5.87;;;;;23.50;101111.00;;;;2067394;28;20217;-65
2021/07/22 02:00:14;;;;;;;6.27;5.77;;;;;23.50;101108.00;;;;2066572;28;20241;-64
2021/07/22 02:01:14;;;;;;;6.00;5.50;;;;;23.40;101121.00;;;;2065821;28;20213;-64
2021/07/22 02:02:15;;;;;;;6.80;6.20;;;;;23.50;101111.00;;;;2066327;28;20456;-65
2021/07/22 02:03:15;;;;;;;6.77;6.17;;;;;23.50;101110.00;;;;2066268;28;20277;-65
2021/07/22 02:04:15;;;;;;;6.33;5.73;;;;;23.40;101108.00;;;;2066771;28;20222;-64
2021/07/22 02:05:16;;;;;;;6.47;5.87;;;;;23.50;101113.00;;;;2067210;28;20276;-65
2021/07/22 02:06:16;;;;;;;6.20;5.70;;;;;23.40;101107.00;;;;2067015;28;20218;-64
2021/07/22 02:07:16;;;;;;;5.93;5.43;;;;;23.50;101114.00;;;;2067163;28;20221;-65
2021/07/22 02:08:17;;;;;;;6.33;5.73;;;;;23.50;101107.00;;;;2066860;28;20314;-64
2021/07/22 02:09:17;;;;;;;5.97;5.47;;;;;23.40;101110.00;;;;2066811;28;20221;-64
2021/07/22 02:10:17;;;;;;;6.17;5.57;;;;;23.40;101104.00;;;;2059717;28;20214;-65
2021/07/22 02:11:18;;;;;;;6.53;5.93;;;;;23.40;101106.00;;;;2058340;28;20255;-65
2021/07/22 02:12:18;;;;;;;6.93;6.33;;;;;23.40;101106.00;;;;2067146;28;20214;-64
2021/07/22 02:13:18;;;;;;;6.80;6.20;;;;;23.40;101107.00;;;;2066080;28;20226;-64
2021/07/22 02:14:19;;;;;;;6.40;5.80;;;;;23.50;101104.00;;;;2066078;28;20211;-65
2021/07/22 02:15:19;;;;;;;6.10;5.60;;;;;23.40;101104.00;;;;2057917;28;20218;-65
2021/07/22 02:16:20;;;;;;;6.63;6.00;;;;;23.40;101102.00;;;;2058026;28;20207;-64
2021/07/22 02:17:20;;;;;;;7.03;6.37;;;;;23.50;101116.00;;;;2058160;28;20343;-64
2021/07/22 02:18:20;;;;;;;6.40;5.80;;;;;23.50;101110.00;;;;2058999;28;20267;-64
2021/07/22 02:19:21;;;;;;;6.70;6.00;;;;;23.40;101113.00;;;;2058391;28;20226;-64
2021/07/22 02:20:21;;;;;;;6.40;5.80;;;;;23.40;101115.00;;;;2058213;28;20226;-64
2021/07/22 02:21:21;;;;;;;6.90;6.20;;;;;23.40;101112.00;;;;2058892;28;20238;-65
2021/07/22 02:22:22;;;;;;;6.43;5.93;;;;;23.40;101109.00;;;;2058130;28;20247;-64
2021/07/22 02:23:22;;;;;;;6.23;5.73;;;;;23.40;101101.00;;;;2058070;28;20210;-64
2021/07/22 02:24:22;;;;;;;6.50;5.90;;;;;23.40;101106.00;;;;2057942;28;20215;-64
2021/07/22 02:25:23;;;;;;;6.60;6.00;;;;;23.40;101109.00;;;;2058051;28;20237;-65
2021/07/22 02:26:23;;;;;;;6.30;5.70;;;;;23.40;101107.00;;;;2061473;28;20234;-64
2021/07/22 02:27:23;;;;;;;5.83;5.33;;;;;23.50;101109.00;;;;2057760;28;20206;-65
2021/07/22 02:28:24;;;;;;;6.63;6.10;;;;;23.50;101112.00;;;;2058207;28;20241;-64
2021/07/22 02:29:24;;;;;;;6.30;5.70;;;;;23.40;101112.00;;;;2057931;28;20223;-64
2021/07/22 02:30:24;;;;;;;6.57;5.97;;;;;23.40;101113.00;;;;2057690;28;20204;-64
2021/07/22 02:31:25;;;;;;;6.50;5.90;;;;;23.40;101112.00;;;;2057994;28;20682;-65
2021/07/22 02:32:25;;;;;;;6.90;6.30;;;;;23.40;101111.00;;;;2058663;28;20725;-65
2021/07/22 02:33:26;;;;;;;6.90;6.30;;;;;23.40;101115.00;;;;2058364;28;20268;-64
2021/07/22 02:34:26;;;;;;;6.47;5.97;;;;;23.40;101108.00;;;;2058515;28;20226;-64
2021/07/22 02:35:26;;;;;;;5.97;5.47;;;;;23.40;101117.00;;;;2057697;28;20236;-64
2021/07/22 02:36:27;;;;;;;7.10;6.50;;;;;23.40;101112.00;;;;2057871;28;20752;-65
2021/07/22 02:37:27;;;;;;;6.47;5.90;;;;;23.40;101125.00;;;;2057668;28;20709;-65
2021/07/22 02:38:28;;;;;;;5.93;5.43;;;;;23.40;101107.00;;;;2061671;28;20870;-65
2021/07/22 02:39:28;;;;;;;5.67;5.27;;;;;23.40;101116.00;;;;2059618;28;20234;-64
2021/07/22 02:40:28;;;;;;;6.80;6.20;;;;;23.40;101108.00;;;;2057938;28;20579;-65
2021/07/22 02:41:29;;;;;;;6.43;5.87;;;;;23.40;101115.00;;;;2058297;28;20210;-64
2021/07/22 02:42:29;;;;;;;5.30;4.90;;;;;23.40;101116.00;;;;2058346;28;20231;-64
2021/07/22 02:43:30;;;;;;;6.50;5.90;;;;;23.40;101112.00;;;;2061972;28;20293;-65
2021/07/22 02:44:30;;;;;;;6.40;5.80;;;;;23.40;101113.00;;;;2059426;28;20342;-65
2021/07/22 02:45:30;;;;;;;6.77;6.17;;;;;23.40;101119.00;;;;2058492;28;20487;-65
2021/07/22 02:46:31;;;;;;;6.57;5.97;;;;;23.40;101122.00;;;;2058264;28;20207;-64
2021/07/22 02:47:31;;;;;;;7.13;6.43;;;;;23.40;101122.00;;;;2058490;28;20226;-64
2021/07/22 02:48:32;;;;;;;5.83;5.33;;;;;23.40;101119.00;;;;2059156;28;20217;-65
2021/07/22 02:49:32;;;;;;;6.03;5.50;;;;;23.40;101125.00;;;;2059055;28;20212;-65
2021/07/22 02:50:33;;;;;;;6.33;5.83;;;;;23.40;101122.00;;;;2058447;28;20761;-64
2021/07/22 02:51:33;;;;;;;7.00;6.30;;;;;23.40;101119.00;;;;2059140;28;20693;-65
2021/07/22 02:52:33;;;;;;;7.13;6.53;;;;;23.40;101130.00;;;;2058322;28;20701;-65
2021/07/22 02:53:34;;;;;;;6.47;5.87;;;;;23.40;101120.00;;;;2058261;28;20892;-65
2021/07/22 02:54:35;;;;;;;6.20;5.70;;;;;23.40;101120.00;;;;2058315;28;20736;-64
2021/07/22 02:55:35;;;;;;;6.70;6.10;;;;;23.40;101123.00;;;;2058375;28;20813;-65
2021/07/22 02:56:36;;;;;;;6.07;5.50;;;;;23.40;101120.00;;;;2057907;28;20223;-64
2021/07/22 02:57:36;;;;;;;6.33;5.73;;;;;23.30;101121.00;;;;2054052;28;20227;-64
2021/07/22 02:58:36;;;;;;;6.23;5.63;;;;;23.40;101122.00;;;;2058975;28;20212;-65
2021/07/22 02:59:37;;;;;;;6.20;5.70;;;;;23.40;101121.00;;;;2059204;28;20207;-65
2021/07/22 03:00:37;;;;;;;6.07;5.57;;;;;23.40;101118.00;;;;2058260;28;20241;-64
2021/07/22 03:01:37;;;;;;;6.17;5.67;;;;;23.40;101120.00;;;;2058362;28;20246;-64
2021/07/22 03:02:38;;;;;;;7.23;6.63;;;;;23.40;101121.00;;;;2058249;28;20207;-65
2021/07/22 03:03:38;;;;;;;6.47;5.90;;;;;23.40;101123.00;;;;2058345;28;20695;-64
2021/07/22 03:04:38;;;;;;;6.50;6.00;;;;;23.40;101120.00;;;;2058305;28;20215;-65
2021/07/22 03:05:39;;;;;;;6.70;6.10;;;;;23.40;101121.00;;;;2058246;28;20636;-64
2021/07/22 03:06:39;;;;;;;7.07;6.47;;;;;23.40;101120.00;;;;2058137;28;20215;-65
2021/07/22 03:07:40;;;;;;;6.40;5.80;;;;;23.40;101120.00;;;;2058180;28;20206;-64
2021/07/22 03:08:40;;;;;;;6.27;5.77;;;;;23.40;101132.00;;;;2058291;28;21229;-65
2021/07/22 03:09:40;;;;;;;6.33;5.83;;;;;23.40;101123.00;;;;2058798;28;20212;-65
2021/07/22 03:10:41;;;;;;;6.50;5.90;;;;;23.40;101117.00;;;;2058437;28;20246;-65
2021/07/22 03:11:41;;;;;;;7.20;6.50;;;;;23.40;101117.00;;;;2059028;28;20230;-64
2021/07/22 03:12:41;;;;;;;6.80;6.20;;;;;23.40;101121.00;;;;2058877;28;20694;-64
2021/07/22 03:13:42;;;;;;;6.23;5.70;;;;;23.40;101116.00;;;;2061995;28;20593;-64
2021/07/22 03:14:42;;;;;;;6.47;5.87;;;;;23.40;101121.00;;;;2060175;28;20630;-64
2021/07/22 03:15:42;;;;;;;6.40;5.80;;;;;23.40;101118.00;;;;2059749;28;20769;-64
2021/07/22 03:16:43;;;;;;;6.73;6.13;;;;;23.40;101119.00;;;;2057733;28;20269;-65
2021/07/22 03:17:43;;;;;;;6.80;6.20;;;;;23.40;101121.00;;;;2056878;28;20230;-65
2021/07/22 03:18:43;;;;;;;6.30;5.70;;;;;23.40;101121.00;;;;2058495;28;20220;-64
2021/07/22 03:19:44;;;;;;;6.70;6.10;;;;;23.40;101120.00;;;;2059425;28;20216;-65
2021/07/22 03:20:46;;;;;;;6.10;5.60;;;;;23.40;101115.00;;;;2060024;28;20246;-65
2021/07/22 03:21:47;;;;;;;6.47;5.93;;;;;23.40;101114.00;;;;2060250;28;20219;-64
2021/07/22 03:22:47;;;;;;;6.90;6.30;;;;;23.40;101123.00;;;;2059124;28;21049;-64
2021/07/22 03:23:47;;;;;;;6.10;5.60;;;;;23.40;101116.00;;;;2059285;28;20736;-65
2021/07/22 03:24:51;;;;;;;6.33;5.83;;;;;23.40;101112.00;;;;2058812;28;20219;-64
2021/07/22 03:25:52;;;;;;;6.40;5.80;;;;;23.40;101118.00;;;;2059475;28;20222;-64
2021/07/22 03:26:52;;;;;;;6.30;5.80;;;;;23.40;101115.00;;;;2059879;28;20694;-64
2021/07/22 03:27:57;;;;;;;5.43;5.03;;;;;23.40;101124.00;;;;2059464;28;20954;-65
2021/07/22 03:28:57;;;;;;;6.55;6.00;;;;;23.40;101117.00;;;;2060146;28;20253;-64
2021/07/22 03:29:57;;;;;;;6.60;6.07;;;;;23.40;101111.00;;;;2058704;28;20644;-64
2021/07/22 03:30:58;;;;;;;6.10;5.60;;;;;23.40;101119.00;;;;2058451;28;21102;-65
2021/07/22 03:32:00;;;;;;;6.23;5.63;;;;;23.40;101108.00;;;;2059380;28;21064;-65
2021/07/22 03:33:03;;;;;;;6.47;5.88;;;;;23.40;101106.00;;;;2058915;28;20222;-64
2021/07/22 03:34:04;;;;;;;5.70;5.20;;;;;23.40;101117.00;;;;2058730;28;20819;-64
2021/07/22 03:35:05;;;;;;;6.33;5.83;;;;;23.40;101115.00;;;;2059291;28;20214;-65
2021/07/22 03:36:05;;;;;;;6.67;6.10;;;;;23.40;101109.00;;;;2058942;28;20215;-64
2021/07/22 03:37:05;;;;;;;6.37;5.87;;;;;23.40;101113.00;;;;2059187;28;20458;-64
2021/07/22 03:38:06;;;;;;;6.37;5.77;;;;;23.40;101113.00;;;;2059755;28;20270;-64
2021/07/22 03:39:06;;;;;;;6.70;5.90;;;;;23.40;101105.00;;;;2059934;28;20230;-65
2021/07/22 03:40:07;;;;;;;6.50;5.53;;;;;23.40;101105.00;;;;2060357;28;20212;-65
2021/07/22 03:41:13;;;;;;;5.93;5.43;;;;;23.40;101112.00;;;;2059364;28;20642;-64
2021/07/22 03:42:13;;;;;;;6.10;5.60;;;;;23.40;101105.00;;;;2059717;28;20461;-64
2021/07/22 03:43:13;;;;;;;6.37;5.87;;;;;23.40;101105.00;;;;2054267;28;20737;-64
2021/07/22 03:44:15;;;;;;;6.77;6.17;;;;;23.40;101106.00;;;;2053002;28;20720;-64
2021/07/22 03:45:15;;;;;;;6.90;6.32;;;;;23.40;101095.00;;;;2060228;28;20211;-64
2021/07/22 03:46:15;;;;;;;6.40;5.80;;;;;23.40;101104.00;;;;2060244;28;20215;-64
2021/07/22 03:47:16;;;;;;;6.00;5.43;;;;;23.40;101105.00;;;;2060347;28;20212;-64
2021/07/22 03:48:16;;;;;;;6.53;5.93;;;;;23.40;101106.00;;;;2060380;28;20266;-64
2021/07/22 03:49:16;;;;;;;6.83;6.23;;;;;23.40;101110.00;;;;2060168;28;20266;-64
2021/07/22 03:50:17;;;;;;;6.20;5.70;;;;;23.40;101106.00;;;;2058607;28;20215;-65
2021/07/22 03:51:17;;;;;;;6.50;5.93;;;;;23.40;101108.00;;;;2059341;28;20234;-64
2021/07/22 03:52:18;;;;;;;6.90;6.20;;;;;23.40;101106.00;;;;2058999;28;20809;-65
2021/07/22 03:53:18;;;;;;;6.30;5.80;;;;;23.40;101107.00;;;;2059080;28;20734;-65
2021/07/22 03:54:18;;;;;;;6.10;5.60;;;;;23.40;101109.00;;;;2059456;28;20239;-64
2021/07/22 03:55:19;;;;;;;6.33;5.83;;;;;23.40;101101.00;;;;2059283;28;20216;-64
2021/07/22 03:56:19;;;;;;;6.03;5.53;;;;;23.40;101100.00;;;;2059569;28;20212;-65
2021/07/22 03:57:19;;;;;;;6.60;6.00;;;;;23.40;101101.00;;;;2059822;28;20234;-64
2021/07/22 03:58:21;;;;;;;6.37;5.80;;;;;23.40;101103.00;;;;2059429;28;20205;-64
2021/07/22 03:59:21;;;;;;;6.32;5.75;;;;;23.40;101095.00;;;;2058983;28;20214;-64
2021/07/22 04:00:25;;;;;;;6.53;5.93;;;;;23.40;101100.00;;;;2058313;28;20583;-64
2021/07/22 04:01:25;;;;;;;6.28;5.47;;;;;23.40;101109.00;;;;2059152;28;20265;-64
2021/07/22 04:02:25;;;;;;;6.23;5.70;;;;;23.40;101104.00;;;;2059493;28;20274;-65
2021/07/22 04:03:26;;;;;;;6.80;6.10;;;;;23.40;101095.00;;;;2059527;28;20305;-65
2021/07/22 04:04:26;;;;;;;6.80;6.20;;;;;23.40;101101.00;;;;2051224;28;20288;-65
2021/07/22 04:05:27;;;;;;;6.73;6.13;;;;;23.40;101095.00;;;;2051307;28;20218;-64
2021/07/22 04:06:27;;;;;;;6.57;5.97;;;;;23.40;101103.00;;;;2059389;28;20253;-64
2021/07/22 04:07:28;;;;;;;6.10;5.60;;;;;23.40;101106.00;;;;2058833;28;20461;-64
2021/07/22 04:08:28;;;;;;;6.37;5.77;;;;;23.40;101103.00;;;;2058301;28;21085;-64
2021/07/22 04:09:28;;;;;;;6.10;5.60;;;;;23.40;101104.00;;;;2059256;28;20254;-65
2021/07/22 04:10:29;;;;;;;6.30;5.80;;;;;23.40;101101.00;;;;2058261;28;20215;-65
2021/07/22 04:11:29;;;;;;;5.97;5.47;;;;;23.40;101101.00;;;;2060028;28;20215;-65
2021/07/22 04:12:30;;;;;;;6.23;5.63;;;;;23.40;101106.00;;;;2059795;28;20215;-64
2021/07/22 04:13:30;;;;;;;6.03;5.53;;;;;23.40;101106.00;;;;2063257;28;20381;-64
2021/07/22 04:14:30;;;;;;;5.97;5.47;;;;;23.40;101107.00;;;;2062141;28;20689;-64
2021/07/22 04:15:31;;;;;;;5.93;5.43;;;;;23.40;101102.00;;;;2060733;28;20559;-64
2021/07/22 04:16:33;;;;;;;6.07;5.57;;;;;23.40;101103.00;;;;2059227;28;20704;-64
2021/07/22 04:17:34;;;;;;;6.50;6.00;;;;;23.40;101110.00;;;;2059114;28;20760;-65
2021/07/22 04:18:34;;;;;;;5.67;5.17;;;;;23.40;101101.00;;;;2059016;28;20223;-64
2021/07/22 04:19:34;;;;;;;6.40;5.90;;;;;23.40;101109.00;;;;2059285;28;20227;-65
2021/07/22 04:20:34;;;;;;;6.13;5.63;;;;;23.40;101099.00;;;;2059163;28;20251;-65
2021/07/22 04:21:35;;;;;;;6.10;5.60;;;;;23.40;101106.00;;;;2059692;28;20230;-64
2021/07/22 04:22:35;;;;;;;6.37;5.87;;;;;23.40;101106.00;;;;2059621;28;20219;-65
2021/07/22 04:23:35;;;;;;;6.10;5.60;;;;;23.40;101106.00;;;;2058568;28;20221;-64
2021/07/22 04:24:36;;;;;;;6.00;5.50;;;;;23.40;101103.00;;;;2049845;28;20219;-64
2021/07/22 04:25:37;;;;;;;6.90;6.30;;;;;23.40;101106.00;;;;2050429;28;20236;-65
2021/07/22 04:26:37;;;;;;;6.33;5.83;;;;;23.40;101103.00;;;;2058877;28;20219;-65
2021/07/22 04:27:37;;;;;;;5.90;5.40;;;;;23.40;101103.00;;;;2059106;28;20211;-65
2021/07/22 04:28:38;;;;;;;6.70;6.10;;;;;23.40;101105.00;;;;2059687;28;20223;-65
2021/07/22 04:29:38;;;;;;;6.80;6.20;;;;;23.40;101102.00;;;;2059287;28;20224;-65
2021/07/22 04:30:39;;;;;;;5.70;5.20;;;;;23.40;101105.00;;;;2058470;28;20261;-65
2021/07/22 04:31:39;;;;;;;6.67;6.07;;;;;23.40;101069.00;;;;2059941;28;20214;-64
2021/07/22 04:32:39;;;;;;;6.10;5.60;;;;;23.40;101096.00;;;;2056576;28;20817;-65
2021/07/22 04:33:40;;;;;;;6.27;5.77;;;;;23.40;101102.00;;;;2058995;28;20594;-64
2021/07/22 04:34:40;;;;;;;6.20;5.60;;;;;23.40;101101.00;;;;2058930;28;20211;-64
2021/07/22 04:35:40;;;;;;;6.30;5.80;;;;;23.40;101107.00;;;;2058856;28;20313;-64
2021/07/22 04:36:41;;;;;;;5.83;5.33;;;;;23.40;101107.00;;;;2059083;28;20227;-65
2021/07/22 04:37:41;;;;;;;6.50;5.90;;;;;23.40;101114.00;;;;2059795;28;20234;-65
2021/07/22 04:38:42;;;;;;;6.20;5.70;;;;;23.40;101110.00;;;;2059236;28;20215;-64
2021/07/22 04:39:42;;;;;;;6.40;5.80;;;;;23.40;101106.00;;;;2060113;28;20215;-64
2021/07/22 04:40:42;;;;;;;6.30;5.80;;;;;23.40;101109.00;;;;2059135;28;20211;-65
2021/07/22 04:41:43;;;;;;;6.10;5.50;;;;;23.40;101106.00;;;;2059218;28;20225;-65
2021/07/22 04:42:43;;;;;;;5.43;5.03;;;;;23.40;101109.00;;;;2060706;28;20599;-65
2021/07/22 04:43:43;;;;;;;6.10;5.60;;;;;23.40;101117.00;;;;2060742;28;20648;-65
2021/07/22 04:44:44;;;;;;;6.30;5.70;;;;;23.40;101102.00;;;;2059102;28;20226;-64
2021/07/22 04:45:44;;;;;;;6.93;6.33;;;;;23.40;101117.00;;;;2062973;28;20266;-65
2021/07/22 04:46:44;;;;;;;6.50;6.00;;;;;23.40;101113.00;;;;2059257;28;20211;-64
2021/07/22 04:47:45;;;;;;;6.33;5.77;;;;;23.40;101117.00;;;;2059305;28;20261;-64
2021/07/22 04:48:45;;;;;;;6.90;6.20;;;;;23.40;101113.00;;;;2059298;28;20215;-65
2021/07/22 04:49:45;;;;;;;6.57;5.97;;;;;23.40;101109.00;;;;2059524;28;20709;-64
2021/07/22 04:50:46;;;;;;;5.83;5.33;;;;;23.40;101108.00;;;;2059141;28;20223;-65
2021/07/22 04:51:46;;;;;;;5.90;5.37;;;;;23.40;101115.00;;;;2059951;28;20219;-65
2021/07/22 04:52:46;;;;;;;6.43;5.87;;;;;23.40;101110.00;;;;2059831;28;20632;-65
2021/07/22 04:53:47;;;;;;;6.00;5.50;;;;;23.40;101117.00;;;;2058565;28;20855;-64
2021/07/22 04:54:47;;;;;;;5.80;5.30;;;;;23.40;101110.00;;;;2058797;28;20250;-64
2021/07/22 04:55:47;;;;;;;5.57;5.07;;;;;23.40;101109.00;;;;2059240;28;20663;-64
2021/07/22 04:56:48;;;;;;;6.13;5.63;;;;;23.40;101116.00;;;;2059201;28;20282;-65
2021/07/22 04:57:51;;;;;;;6.87;5.60;;;;;23.40;101107.00;;;;2059218;28;20239;-64
2021/07/22 04:58:51;;;;;;;5.63;5.13;;;;;23.40;101114.00;;;;2045705;29;20227;-65
2021/07/22 04:59:51;;;;;;;5.93;5.43;;;;;23.40;101114.00;;;;2043012;29;20247;-64